Time;durP1;ratioP1;P1;durP2;ratioP2;P2;SDS_P1;SDS_P2;PMS_P1;PMS_P2;Temp;Humidity;BMP_temperature;BMP_pressure;BME280_temperature;BME280_humidity;BME280_pressure;Samples;Min_cycle;Max_cycle;Signal;HPM_P1;HPM_P2
2020/12/06 00:01:31;;;;;;;8.70;6.22;;;;;;;2.30;89.57;96954.20;1802345;79;21104;-49
2020/12/06 00:04:05;;;;;;;11.85;6.92;;;;;;;2.32;89.36;96959.25;1809495;79;21125;-50
2020/12/06 00:06:33;;;;;;;9.80;7.50;;;;;;;2.26;89.34;96953.89;1791522;79;21086;-51
2020/12/06 00:09:00;;;;;;;10.85;6.25;;;;;;;2.28;89.42;96962.36;1788298;80;21097;-49
2020/12/06 00:11:28;;;;;;;11.20;6.60;;;;;;;2.28;89.38;96961.08;1785962;80;21152;-49
2020/12/06 00:13:56;;;;;;;9.58;6.50;;;;;;;2.28;89.28;96971.77;1786748;79;21053;-49
2020/12/06 00:16:23;;;;;;;8.28;6.35;;;;;;;2.26;89.21;96975.66;1786298;79;22256;-49
2020/12/06 00:18:50;;;;;;;16.35;6.53;;;;;;;2.21;89.19;96969.84;1751661;80;21116;-49
2020/12/06 00:21:19;;;;;;;12.00;6.03;;;;;;;2.17;89.37;96966.97;1771648;80;21164;-49
2020/12/06 00:23:47;;;;;;;8.10;6.58;;;;;;;2.15;89.55;96972.14;1768783;81;21068;-49
2020/12/06 00:26:22;;;;;;;8.50;5.80;;;;;;;2.15;89.51;96977.71;1779066;80;21054;-49
2020/12/06 00:28:50;;;;;;;7.70;6.05;;;;;;;2.14;89.49;96973.04;1770453;81;21169;-48
2020/12/06 00:31:17;;;;;;;9.90;6.70;;;;;;;2.13;89.47;96979.48;1764599;81;21088;-48
2020/12/06 00:33:45;;;;;;;7.03;5.70;;;;;;;2.08;89.51;96987.30;1758549;81;21374;-49
2020/12/06 00:36:13;;;;;;;16.82;6.85;;;;;;;2.12;89.61;96985.06;1768639;81;21134;-49
2020/12/06 00:38:42;;;;;;;14.58;7.00;;;;;;;2.13;89.46;96989.72;1770540;81;21122;-49
2020/12/06 00:41:11;;;;;;;9.28;6.33;;;;;;;2.12;89.44;96981.64;1761426;81;21379;-50
2020/12/06 00:43:39;;;;;;;8.68;6.65;;;;;;;2.12;89.42;96975.23;1767990;79;21135;-50
2020/12/06 00:46:08;;;;;;;11.73;6.17;;;;;;;2.07;89.46;96979.22;1733910;82;21089;-49
2020/12/06 00:48:35;;;;;;;11.10;6.80;;;;;;;2.05;89.55;96980.16;1725337;83;21509;-49
2020/12/06 00:51:03;;;;;;;7.78;5.70;;;;;;;2.01;89.58;96976.86;1749241;81;21069;-49
2020/12/06 00:53:32;;;;;;;6.97;6.20;;;;;;;1.99;89.72;96974.77;1757012;81;21382;-49
2020/12/06 00:56:00;;;;;;;6.92;5.97;;;;;;;1.98;89.76;96981.62;1775076;80;21136;-49
2020/12/06 00:58:28;;;;;;;8.60;6.83;;;;;;;1.98;89.87;96972.66;1757588;80;21424;-50
2020/12/06 01:00:56;;;;;;;9.40;6.75;;;;;;;2.02;89.94;96970.42;1780373;80;21125;-48
2020/12/06 01:03:24;;;;;;;9.83;7.45;;;;;;;2.08;89.84;96964.72;1759686;80;21064;-48
2020/12/06 01:05:52;;;;;;;9.70;5.60;;;;;;;2.15;89.77;96972.14;1783460;80;21450;-49
2020/12/06 01:08:20;;;;;;;9.68;5.40;;;;;;;2.23;89.28;96969.80;1785379;80;21596;-49
2020/12/06 01:10:49;;;;;;;9.28;5.58;;;;;;;2.21;89.25;96965.55;1783280;80;21120;-51
2020/12/06 01:13:17;;;;;;;10.45;6.50;;;;;;;2.24;89.12;96965.91;1783384;80;21070;-49
2020/12/06 01:15:45;;;;;;;7.17;6.47;;;;;;;2.27;88.85;96967.52;1783397;80;21068;-49
2020/12/06 01:18:12;;;;;;;7.37;5.28;;;;;;;2.29;88.90;96958.92;1782369;80;21264;-49
2020/12/06 01:20:40;;;;;;;9.75;5.35;;;;;;;2.39;88.64;96968.44;1740425;81;21955;-49
2020/12/06 01:23:08;;;;;;;9.25;6.37;;;;;;;2.41;87.91;96965.38;1754931;81;21618;-49
2020/12/06 01:25:35;;;;;;;8.25;4.75;;;;;;;2.30;87.78;96969.57;1783363;80;21054;-50
2020/12/06 01:28:03;;;;;;;15.28;6.83;;;;;;;2.31;87.82;96965.28;1767533;80;21149;-49
2020/12/06 01:30:30;;;;;;;10.13;5.92;;;;;;;2.31;87.56;96962.72;1744152;81;21396;-49
2020/12/06 01:32:58;;;;;;;6.60;5.75;;;;;;;2.28;87.52;96967.48;1738929;82;21940;-51
2020/12/06 01:35:26;;;;;;;14.03;4.30;;;;;;;2.29;87.64;96962.77;1746441;81;21157;-50
2020/12/06 01:37:54;;;;;;;9.40;6.40;;;;;;;2.33;87.46;96960.94;1750779;81;22050;-49
2020/12/06 01:40:23;;;;;;;8.18;4.35;;;;;;;2.32;87.30;96966.51;1746526;81;21060;-50
2020/12/06 01:42:51;;;;;;;6.33;5.70;;;;;;;2.36;87.22;96967.25;1779786;79;21381;-50
2020/12/06 01:45:18;;;;;;;6.70;4.97;;;;;;;2.32;86.84;96966.94;1795843;79;21151;-49
2020/12/06 01:47:46;;;;;;;11.43;5.72;;;;;;;2.26;86.86;96974.83;1795687;79;21067;-51
2020/12/06 01:50:13;;;;;;;6.05;4.53;;;;;;;2.22;86.99;96974.09;1795009;80;21065;-49
2020/12/06 01:52:41;;;;;;;10.65;5.30;;;;;;;2.23;87.01;96968.52;1780888;80;21143;-49
2020/12/06 01:55:11;;;;;;;5.40;4.90;;;;;;;2.17;86.85;96975.51;1782380;79;23454;-49
2020/12/06 01:57:40;;;;;;;9.78;5.65;;;;;;;2.12;86.90;96978.66;1814900;79;21572;-49
2020/12/06 02:00:07;;;;;;;6.05;4.45;;;;;;;2.01;87.10;96973.85;1794708;79;21148;-49
2020/12/06 02:02:36;;;;;;;11.05;5.90;;;;;;;1.94;87.37;96979.19;1768492;79;21509;-50
2020/12/06 02:05:04;;;;;;;8.83;5.33;;;;;;;1.90;87.50;96984.02;1788833;79;21053;-49
2020/12/06 02:07:32;;;;;;;11.60;4.43;;;;;;;1.90;87.60;96986.12;1781002;79;21417;-49
2020/12/06 02:10:00;;;;;;;9.08;4.65;;;;;;;1.92;87.49;96984.35;1768691;79;21076;-49
2020/12/06 02:12:28;;;;;;;6.67;4.60;;;;;;;1.91;87.67;96986.53;1794985;79;21181;-49
2020/12/06 02:14:55;;;;;;;8.85;5.17;;;;;;;1.93;87.61;96986.48;1791871;79;21040;-50
2020/12/06 02:17:26;;;;;;;13.85;5.92;;;;;;;1.91;87.58;96992.08;1760988;81;21057;-49
2020/12/06 02:19:55;;;;;;;4.45;3.47;;;;;;;1.93;87.57;96991.61;1759934;81;21466;-50
2020/12/06 02:22:23;;;;;;;13.53;5.87;;;;;;;2.04;87.54;96994.69;1773231;80;21479;-50
2020/12/06 02:24:50;;;;;;;5.00;4.03;;;;;;;2.03;86.99;96988.71;1773303;80;21102;-50
2020/12/06 02:27:18;;;;;;;4.42;4.03;;;;;;;1.94;87.13;96995.83;1773988;80;21157;-50
2020/12/06 02:29:46;;;;;;;4.00;3.70;;;;;;;1.90;87.29;96995.53;1773107;81;21688;-50
2020/12/06 02:32:13;;;;;;;11.05;4.45;;;;;;;1.94;87.41;96991.56;1778999;79;21344;-50
2020/12/06 02:34:43;;;;;;;9.20;5.87;;;;;;;2.01;87.08;96994.33;1762154;81;21151;-50
2020/12/06 02:37:10;;;;;;;4.80;4.33;;;;;;;1.95;86.87;96993.22;1788074;80;21108;-50
2020/12/06 02:39:38;;;;;;;8.80;3.60;;;;;;;1.95;87.01;96987.28;1764467;80;21194;-50
2020/12/06 02:42:06;;;;;;;8.70;4.62;;;;;;;2.03;86.96;96990.45;1764489;81;21769;-50
2020/12/06 02:44:33;;;;;;;9.50;5.08;;;;;;;2.05;86.95;96977.60;1800399;79;21482;-50
2020/12/06 02:47:01;;;;;;;4.28;3.87;;;;;;;2.02;86.31;96975.54;1795592;79;21159;-50
2020/12/06 02:49:30;;;;;;;6.87;4.72;;;;;;;1.96;86.44;96979.55;1787341;79;21122;-52
2020/12/06 02:51:58;;;;;;;12.70;3.77;;;;;;;1.93;86.43;96981.38;1773944;79;21580;-50
2020/12/06 02:54:27;;;;;;;6.20;3.95;;;;;;;1.88;86.60;96983.23;1788461;80;21053;-50
2020/12/06 02:56:56;;;;;;;3.22;3.02;;;;;;;1.85;86.69;96976.47;1785699;80;21255;-50
2020/12/06 02:59:23;;;;;;;7.20;3.50;;;;;;;1.83;86.68;96977.80;1784883;80;21081;-50
2020/12/06 03:01:51;;;;;;;3.55;3.25;;;;;;;1.82;86.64;96976.11;1785134;79;21152;-50
2020/12/06 03:04:20;;;;;;;;;;;;;;;1.80;86.70;96979.61;1810613;79;21121;-55
2020/12/06 03:06:48;;;;;;;6.05;3.45;;;;;;;1.76;86.81;96976.31;1731168;81;20293;-50
2020/12/06 03:09:15;;;;;;;6.28;4.25;;;;;;;1.76;86.80;96981.84;1762607;80;21792;-50
2020/12/06 03:11:43;;;;;;;7.72;3.55;;;;;;;1.77;86.77;96972.02;1782858;80;21064;-50
2020/12/06 03:14:11;;;;;;;7.47;3.90;;;;;;;1.80;86.50;96986.84;1770904;81;21120;-50
2020/12/06 03:16:40;;;;;;;4.00;3.50;;;;;;;1.67;86.60;96976.56;1770769;81;21130;-50
2020/12/06 03:19:08;;;;;;;3.33;3.02;;;;;;;1.58;86.85;96976.81;1771000;81;21479;-50
2020/12/06 03:21:35;;;;;;;4.00;3.65;;;;;;;1.48;87.13;96985.22;1763561;81;23469;-50
2020/12/06 03:24:03;;;;;;;5.03;2.95;;;;;;;1.37;87.41;96980.39;1770603;81;22027;-50
2020/12/06 03:26:31;;;;;;;5.05;3.50;;;;;;;1.35;87.80;96982.16;1770563;81;21578;-50
2020/12/06 03:28:58;;;;;;;4.47;4.08;;;;;;;1.28;87.83;96985.33;1763481;81;21078;-50
2020/12/06 03:31:26;;;;;;;3.60;3.30;;;;;;;1.21;88.02;96988.08;1770083;81;21072;-50
2020/12/06 03:33:54;;;;;;;7.55;3.80;;;;;;;1.21;88.28;96983.80;1766119;81;21366;-50
2020/12/06 03:36:22;;;;;;;3.80;3.35;;;;;;;1.23;88.22;96982.06;1779099;79;21196;-50
2020/12/06 03:38:50;;;;;;;3.13;2.83;;;;;;;1.25;88.17;96990.52;1785592;79;21124;-50
2020/12/06 03:41:17;;;;;;;15.15;2.92;;;;;;;1.25;87.91;96987.10;1786726;79;21085;-50
2020/12/06 03:43:45;;;;;;;6.78;3.20;;;;;;;1.16;87.96;96988.20;1812059;79;21224;-50
2020/12/06 03:46:13;;;;;;;4.30;3.58;;;;;;;0.94;88.68;96980.27;1814613;78;22041;-50
2020/12/06 03:48:41;;;;;;;6.13;3.33;;;;;;;0.94;88.68;96980.27;1792381;78;21120;-50
2020/12/06 03:51:08;;;;;;;7.78;3.55;;;;;;;0.95;88.85;96989.59;1789795;79;21178;-50
2020/12/06 03:53:36;;;;;;;6.40;3.10;;;;;;;0.95;88.62;96995.15;1790797;80;21064;-50
2020/12/06 03:56:03;;;;;;;4.03;3.47;;;;;;;0.89;88.74;96991.88;1804920;79;21132;-50
2020/12/06 03:58:31;;;;;;;5.17;3.30;;;;;;;0.82;88.79;96987.81;1812391;78;21533;-50
2020/12/06 04:00:59;;;;;;;10.58;3.72;;;;;;;0.80;89.07;96992.55;1783804;80;21137;-51
2020/12/06 04:03:28;;;;;;;10.75;3.17;;;;;;;0.88;89.07;96993.20;1783515;79;21144;-50
2020/12/06 04:05:56;;;;;;;3.30;2.33;;;;;;;0.95;88.84;96999.81;1769916;79;21073;-50
2020/12/06 04:08:24;;;;;;;3.02;2.83;;;;;;;0.93;88.42;96999.47;1800859;79;21049;-50
2020/12/06 04:10:51;;;;;;;3.10;2.80;;;;;;;0.86;88.50;97000.89;1799639;78;21107;-50
2020/12/06 04:13:19;;;;;;;12.80;3.00;;;;;;;0.85;88.65;97010.70;1805084;78;21157;-50
2020/12/06 04:15:46;;;;;;;3.52;3.22;;;;;;;0.84;88.58;97008.19;1796017;80;21070;-50
2020/12/06 04:18:14;;;;;;;3.08;2.60;;;;;;;0.80;88.60;97006.16;1787791;79;21074;-50
2020/12/06 04:20:41;;;;;;;3.17;2.87;;;;;;;0.74;88.65;97007.61;1780509;79;21113;-50
2020/12/06 04:23:09;;;;;;;3.55;3.20;;;;;;;0.68;88.83;97011.58;1761949;79;21156;-50
2020/12/06 04:25:36;;;;;;;3.33;3.02;;;;;;;0.64;88.93;97015.06;1759415;79;21092;-50
2020/12/06 04:28:04;;;;;;;3.55;2.75;;;;;;;0.57;89.04;97010.55;1768447;79;21128;-50
2020/12/06 04:30:32;;;;;;;7.60;2.75;;;;;;;0.58;89.28;97011.41;1818169;79;21128;-50
2020/12/06 04:33:01;;;;;;;20.37;3.02;;;;;;;0.58;89.22;97003.30;1817871;79;21536;-53
2020/12/06 04:35:29;;;;;;;4.42;2.67;;;;;;;0.57;89.17;97013.55;1797417;79;21375;-50
2020/12/06 04:37:57;;;;;;;2.95;2.55;;;;;;;0.50;89.11;97003.47;1807939;79;21058;-50
2020/12/06 04:40:25;;;;;;;3.20;2.70;;;;;;;0.46;89.29;97022.31;1788243;79;21519;-50
2020/12/06 04:42:53;;;;;;;2.67;2.27;;;;;;;0.43;89.44;97010.03;1770140;79;21065;-50
2020/12/06 04:45:22;;;;;;;2.92;2.62;;;;;;;0.44;89.53;97017.66;1677091;81;21139;-50
2020/12/06 04:48:05;;;;;;;6.80;2.75;;;;;;;0.46;89.46;97009.55;1752842;81;22091;-51
2020/12/06 04:50:36;;;;;;;2.60;2.17;;;;;;;0.47;89.41;97016.31;1758827;81;21073;-51
2020/12/06 04:53:05;;;;;;;2.80;2.60;;;;;;;0.49;89.28;97011.17;1736221;81;21489;-50
2020/12/06 04:55:35;;;;;;;7.72;2.22;;;;;;;0.47;89.20;97012.92;1737162;82;21124;-50
2020/12/06 04:58:04;;;;;;;7.33;2.72;;;;;;;0.38;89.39;97002.50;1754356;81;21603;-50
2020/12/06 05:00:35;;;;;;;7.33;2.15;;;;;;;0.38;89.39;97002.50;1787892;79;21170;-50
2020/12/06 05:03:08;;;;;;;6.42;2.35;;;;;;;0.36;89.33;97011.89;1782513;79;21072;-50
2020/12/06 05:05:38;;;;;;;5.78;2.70;;;;;;;0.35;89.51;97021.72;1754218;81;21086;-49
2020/12/06 05:08:12;;;;;;;3.72;2.58;;;;;;;0.36;89.49;97022.09;1761027;81;21075;-49
2020/12/06 05:10:46;;;;;;;2.95;2.75;;;;;;;0.35;89.51;97016.61;1768847;81;21136;-50
2020/12/06 05:13:16;;;;;;;4.80;2.52;;;;;;;0.32;89.55;97019.23;1770562;81;21470;-49
2020/12/06 05:15:46;;;;;;;2.27;2.17;;;;;;;0.30;89.62;97025.64;1770355;81;21081;-50
2020/12/06 05:18:14;;;;;;;2.60;2.40;;;;;;;0.25;89.69;97030.02;1767251;81;21050;-50
2020/12/06 05:20:41;;;;;;;9.10;2.77;;;;;;;0.22;89.85;97015.22;1754344;81;21151;-50
2020/12/06 05:23:10;;;;;;;6.37;2.93;;;;;;;0.20;89.82;97025.88;1745413;81;21136;-51
2020/12/06 05:25:37;;;;;;;4.72;1.98;;;;;;;0.14;90.04;97028.97;1715310;81;22361;-50
2020/12/06 05:28:08;;;;;;;2.12;1.92;;;;;;;0.14;90.04;97028.97;1733951;81;21105;-50
2020/12/06 05:30:41;;;;;;;2.42;2.22;;;;;;;0.12;90.04;97023.51;1761967;81;21494;-50
2020/12/06 05:33:10;;;;;;;2.42;2.22;;;;;;;0.12;90.21;97033.72;1733329;81;21175;-50
2020/12/06 05:35:43;;;;;;;6.20;2.40;;;;;;;0.11;90.18;97035.86;1758698;81;21481;-50
2020/12/06 05:38:11;;;;;;;2.47;2.27;;;;;;;0.12;90.17;97033.27;1760007;81;21376;-50
2020/12/06 05:40:46;;;;;;;3.60;2.25;;;;;;;0.15;90.24;97038.76;1740913;81;21576;-51
2020/12/06 05:43:13;;;;;;;3.37;2.58;;;;;;;0.12;90.03;97033.72;1740493;81;21075;-50
2020/12/06 05:45:40;;;;;;;2.22;2.02;;;;;;;0.14;89.96;97039.17;1729377;81;21202;-50
2020/12/06 05:48:08;;;;;;;3.75;2.02;;;;;;;0.14;89.96;97039.17;1756137;81;21187;-50
2020/12/06 05:50:36;;;;;;;1.52;1.42;;;;;;;0.10;89.89;97037.58;1759521;80;21584;-50
2020/12/06 05:53:04;;;;;;;2.85;2.12;;;;;;;0.03;90.08;97041.11;1755538;80;21099;-50
2020/12/06 05:55:32;;;;;;;3.98;2.62;;;;;;;-0.02;90.30;97034.86;1708976;82;21139;-50
2020/12/06 05:58:00;;;;;;;2.92;2.62;;;;;;;-0.04;90.46;97036.58;1706288;82;21567;-51
2020/12/06 06:00:29;;;;;;;5.35;2.50;;;;;;;-0.02;90.53;97032.30;1732756;82;21590;-51
2020/12/06 06:02:56;;;;;;;5.90;2.70;;;;;;;0.01;90.42;97040.31;1764551;81;21904;-50
2020/12/06 06:05:24;;;;;;;9.50;3.10;;;;;;;0.01;90.53;97044.59;1764417;81;21161;-50
2020/12/06 06:07:51;;;;;;;7.22;2.90;;;;;;;0.04;90.44;97041.97;1748903;81;21105;-50
2020/12/06 06:10:19;;;;;;;2.95;2.70;;;;;;;0.09;90.15;97039.71;1759297;80;21126;-50
2020/12/06 06:12:48;;;;;;;4.62;2.30;;;;;;;0.09;90.15;97039.71;1726153;82;21072;-50
2020/12/06 06:15:16;;;;;;;5.22;2.37;;;;;;;0.09;89.87;97047.81;1728116;81;21294;-50
2020/12/06 06:17:43;;;;;;;4.08;2.40;;;;;;;0.03;89.92;97048.77;1713126;82;21196;-51
2020/12/06 06:20:10;;;;;;;2.98;2.67;;;;;;;-0.02;90.10;97049.30;1723403;81;21135;-50
2020/12/06 06:22:40;;;;;;;3.17;2.87;;;;;;;-0.03;90.22;97052.75;1758391;81;21154;-50
2020/12/06 06:25:08;;;;;;;5.55;3.37;;;;;;;-0.04;90.22;97044.68;1731171;81;21682;-51
2020/12/06 06:27:40;;;;;;;4.97;2.70;;;;;;;-0.01;90.36;97047.17;1758781;81;21993;-50
2020/12/06 06:30:08;;;;;;;11.00;3.15;;;;;;;0.06;90.32;97052.53;1730685;81;21178;-51
2020/12/06 06:32:37;;;;;;;5.05;2.80;;;;;;;0.14;90.20;97045.55;1757649;81;21087;-51
2020/12/06 06:35:07;;;;;;;2.85;2.65;;;;;;;0.23;89.79;97046.22;1749529;81;21061;-51
2020/12/06 06:37:35;;;;;;;;;;;;;;;0.20;89.54;97045.01;1757014;81;21500;-51
2020/12/06 06:40:08;;;;;;;3.10;2.80;;;;;;;0.16;89.50;97056.59;1756404;80;21198;-51
2020/12/06 06:42:37;;;;;;;4.35;2.40;;;;;;;0.10;89.58;97052.02;1756055;80;21277;-51
2020/12/06 06:45:08;;;;;;;8.03;3.30;;;;;;;0.05;89.74;97057.25;1759285;81;21480;-51
2020/12/06 06:47:39;;;;;;;4.22;2.98;;;;;;;0.04;89.94;97055.56;1765571;81;21087;-51
2020/12/06 06:50:08;;;;;;;6.47;2.90;;;;;;;0.05;89.99;97062.36;1765601;81;21949;-50
2020/12/06 06:52:39;;;;;;;5.75;2.30;;;;;;;0.11;90.03;97053.72;1758894;81;22170;-51
2020/12/06 06:55:07;;;;;;;2.70;2.50;;;;;;;0.11;90.03;97053.72;1721363;82;21184;-51
2020/12/06 06:57:35;;;;;;;3.20;2.90;;;;;;;0.13;89.83;97054.10;1750477;82;21064;-50
2020/12/06 07:00:03;;;;;;;2.33;2.05;;;;;;;0.15;89.86;97065.55;1750470;80;21167;-50
2020/12/06 07:02:41;;;;;;;;;;;;;;;0.15;89.69;97060.45;1715303;82;21124;-50
2020/12/06 07:05:20;;;;;;;3.98;2.60;;;;;;;0.12;89.80;97059.23;1735302;82;22887;-51
2020/12/06 07:07:50;;;;;;;4.65;2.80;;;;;;;0.10;89.84;97068.61;1751527;81;21084;-51
2020/12/06 07:10:21;;;;;;;8.28;2.30;;;;;;;0.03;89.74;97062.80;1763807;81;21182;-51
2020/12/06 07:12:58;;;;;;;3.58;2.75;;;;;;;0.03;89.74;97062.80;1758756;81;21152;-51
2020/12/06 07:15:27;;;;;;;3.33;3.02;;;;;;;0.02;90.04;97059.86;1724732;81;21069;-50
2020/12/06 07:17:56;;;;;;;2.85;2.55;;;;;;;0.03;90.11;97065.34;1752971;81;22348;-51
2020/12/06 07:20:26;;;;;;;9.90;2.70;;;;;;;0.07;90.27;97065.70;1752933;81;21495;-51
2020/12/06 07:22:55;;;;;;;3.55;2.90;;;;;;;0.15;90.19;97074.04;1759225;81;21063;-51
2020/12/06 07:25:23;;;;;;;3.10;2.80;;;;;;;0.16;89.76;97069.34;1755688;81;21055;-52
2020/12/06 07:27:52;;;;;;;3.47;2.92;;;;;;;0.15;89.82;97073.20;1764578;81;21115;-52
2020/12/06 07:30:20;;;;;;;3.50;2.83;;;;;;;0.14;89.80;97076.17;1735084;82;22132;-51
2020/12/06 07:32:48;;;;;;;4.10;3.30;;;;;;;0.12;89.70;97070.72;1735203;82;21190;-49
2020/12/06 07:35:18;;;;;;;4.15;2.85;;;;;;;0.11;89.86;97072.85;1735445;81;21074;-52
2020/12/06 07:37:46;;;;;;;6.00;3.50;;;;;;;0.10;89.84;97079.67;1751243;80;21065;-51
2020/12/06 07:40:14;;;;;;;3.50;2.80;;;;;;;0.03;90.23;97090.03;1756121;81;46924;-51
2020/12/06 07:42:42;;;;;;;6.65;3.12;;;;;;;0.03;90.23;97090.03;1756217;81;21545;-51
2020/12/06 07:45:10;;;;;;;3.67;3.33;;;;;;;0.02;90.18;97088.34;1755321;81;21335;-52
2020/12/06 07:47:38;;;;;;;3.72;3.40;;;;;;;0.03;90.25;97087.48;1784022;80;21601;-51
2020/12/06 07:50:06;;;;;;;3.95;3.10;;;;;;;0.07;90.12;97083.56;1757050;81;21088;-51
2020/12/06 07:52:38;;;;;;;4.47;3.27;;;;;;;0.04;89.92;97084.07;1775280;79;21462;-51
2020/12/06 07:55:07;;;;;;;3.37;3.08;;;;;;;0.05;90.07;97068.73;1811759;79;21264;-51
2020/12/06 07:57:47;;;;;;;3.95;3.58;;;;;;;0.12;90.06;97075.82;1787651;79;21255;-50
2020/12/06 08:00:21;;;;;;;8.50;3.80;;;;;;;0.16;89.92;97074.45;1781141;79;21142;-50
2020/12/06 08:02:56;;;;;;;12.15;2.95;;;;;;;0.18;89.61;97076.53;1748468;81;21593;-50
2020/12/06 08:05:35;;;;;;;4.12;3.50;;;;;;;0.15;89.31;97074.48;1748118;82;21058;-50
2020/12/06 08:08:09;;;;;;;;;;;;;;;0.07;89.42;97083.56;1751809;81;21210;-52
2020/12/06 08:10:38;;;;;;;6.40;3.33;;;;;;;-0.02;89.66;97083.33;1751783;80;20217;-50
2020/12/06 08:13:10;;;;;;;4.70;3.42;;;;;;;-0.07;90.01;97092.77;1770934;80;21217;-51
2020/12/06 08:15:38;;;;;;;9.20;3.10;;;;;;;-0.11;90.23;97072.47;1755601;80;21135;-51
2020/12/06 08:18:15;;;;;;;13.20;4.15;;;;;;;-0.05;90.29;97079.56;1771394;78;21049;-64
2020/12/06 08:20:54;;;;;;;11.85;3.65;;;;;;;-0.01;90.16;97089.27;1752082;80;21214;-50
2020/12/06 08:23:40;;;;;;;;;;;;;;;0.01;90.10;97090.06;1783714;79;21145;-50
2020/12/06 08:26:09;;;;;;;4.50;3.45;;;;;;;-0.05;89.69;97099.97;1773942;79;20241;-50
2020/12/06 08:28:36;;;;;;;3.10;2.80;;;;;;;-0.14;90.03;97081.02;1791816;80;21462;-50
2020/12/06 08:31:22;;;;;;;3.85;3.45;;;;;;;-0.16;90.22;97097.23;1761254;80;21081;-50
2020/12/06 08:33:49;;;;;;;3.72;3.33;;;;;;;-0.20;90.43;97088.37;1752531;80;21355;-50
2020/12/06 08:36:24;;;;;;;6.75;3.60;;;;;;;-0.20;90.42;97081.98;1757973;78;21202;-51
2020/12/06 08:38:51;;;;;;;4.50;3.75;;;;;;;-0.19;90.59;97078.55;1768282;80;21136;-49
2020/12/06 08:41:25;;;;;;;4.78;3.37;;;;;;;-0.19;90.53;97070.06;1751522;80;21188;-50
2020/12/06 08:44:05;;;;;;;6.08;3.67;;;;;;;-0.16;90.60;97078.94;1767295;80;21097;-50
2020/12/06 08:46:33;;;;;;;5.87;3.33;;;;;;;-0.19;90.62;97068.34;1785808;79;21425;-48
2020/12/06 08:49:21;;;;;;;5.53;3.20;;;;;;;-0.17;90.73;97078.97;1760768;79;21510;-49
2020/12/06 08:51:54;;;;;;;4.75;3.20;;;;;;;-0.15;90.62;97068.29;1748461;80;21590;-50
2020/12/06 08:54:36;;;;;;;3.90;3.45;;;;;;;-0.13;90.59;97071.23;1791891;79;21128;-49
2020/12/06 08:57:10;;;;;;;6.75;3.30;;;;;;;-0.10;90.45;97063.52;1798110;79;21045;-50
2020/12/06 08:59:39;;;;;;;7.00;3.95;;;;;;;-0.09;90.28;97086.86;1785842;78;21365;-51
2020/12/06 09:02:08;;;;;;;5.22;3.33;;;;;;;-0.13;90.33;97075.47;1744939;81;21096;-50
2020/12/06 09:04:37;;;;;;;4.17;3.10;;;;;;;-0.16;90.35;97080.21;1790609;79;21070;-49
2020/12/06 09:07:05;;;;;;;7.03;3.55;;;;;;;-0.21;90.42;97062.89;1770776;79;21081;-50
2020/12/06 09:09:33;;;;;;;7.60;3.08;;;;;;;-0.21;90.42;97062.89;1795126;79;21097;-51
2020/12/06 09:12:03;;;;;;;10.53;3.40;;;;;;;-0.22;90.68;97069.68;1783734;79;21469;-50
2020/12/06 09:14:31;;;;;;;7.93;4.47;;;;;;;-0.24;90.55;97066.33;1796972;79;21125;-50
2020/12/06 09:16:59;;;;;;;6.62;3.35;;;;;;;-0.26;90.81;97064.25;1801463;78;21153;-51
2020/12/06 09:19:27;;;;;;;3.62;2.75;;;;;;;-0.20;90.75;97041.59;1799061;79;21084;-49
2020/12/06 09:21:54;;;;;;;4.20;3.20;;;;;;;-0.19;90.63;97050.94;1819400;78;21041;-50
2020/12/06 09:24:22;;;;;;;7.45;3.62;;;;;;;-0.20;90.54;97054.34;1798717;79;23480;-49
2020/12/06 09:26:51;;;;;;;4.65;4.20;;;;;;;-0.23;90.59;97059.09;1819242;78;21120;-49
2020/12/06 09:29:19;;;;;;;6.55;3.92;;;;;;;-0.21;90.80;97057.79;1788919;79;21213;-49
2020/12/06 09:31:46;;;;;;;4.90;4.33;;;;;;;-0.20;90.72;97062.00;1766129;81;21074;-50
2020/12/06 09:34:14;;;;;;;6.33;4.00;;;;;;;-0.15;90.86;97047.88;1778246;80;21766;-50
2020/12/06 09:36:44;;;;;;;8.40;4.65;;;;;;;-0.08;90.84;97043.08;1786751;78;21311;-49
2020/12/06 09:39:13;;;;;;;5.22;4.08;;;;;;;-0.04;90.62;97030.64;1783415;80;21072;-49
2020/12/06 09:41:45;;;;;;;6.70;4.50;;;;;;;-0.05;90.35;97035.33;1786083;79;21109;-49
2020/12/06 09:44:13;;;;;;;4.95;3.77;;;;;;;-0.04;90.49;97035.75;1798798;79;21548;-49
2020/12/06 09:46:40;;;;;;;8.08;4.60;;;;;;;0.02;90.42;97032.22;1791897;79;21579;-50
2020/12/06 09:49:08;;;;;;;4.40;3.98;;;;;;;0.03;90.25;97025.80;1764502;81;21220;-49
2020/12/06 09:51:36;;;;;;;6.97;5.20;;;;;;;0.09;90.38;97032.50;1783840;78;21069;-49
2020/12/06 09:54:04;;;;;;;6.58;4.10;;;;;;;0.16;90.08;97040.00;1796162;79;21081;-49
2020/12/06 09:56:32;;;;;;;5.10;4.03;;;;;;;0.17;89.75;97048.48;1801870;78;21069;-49
2020/12/06 09:59:00;;;;;;;4.17;3.45;;;;;;;0.11;89.45;97036.69;1764260;80;21577;-49
2020/12/06 10:01:28;;;;;;;8.60;4.10;;;;;;;0.06;89.59;97023.19;1757186;80;21173;-50
2020/12/06 10:03:55;;;;;;;5.50;4.47;;;;;;;-0.02;89.60;97014.45;1791959;79;21880;-49
2020/12/06 10:06:25;;;;;;;5.08;4.40;;;;;;;-0.09;89.89;97014.16;1792748;80;21061;-50
2020/12/06 10:08:54;;;;;;;7.15;4.03;;;;;;;-0.14;90.23;97010.88;1766425;80;21127;-49
2020/12/06 10:11:23;;;;;;;5.12;4.22;;;;;;;-0.12;90.44;97001.91;1764911;80;21093;-50
2020/12/06 10:13:51;;;;;;;5.33;4.70;;;;;;;-0.09;90.38;96996.30;1764523;81;22339;-50
2020/12/06 10:16:20;;;;;;;5.60;4.78;;;;;;;-0.04;90.47;96995.76;1755544;81;21647;-51
2020/12/06 10:18:47;;;;;;;5.17;4.53;;;;;;;0.05;90.33;96997.70;1789709;80;21045;-51
2020/12/06 10:21:15;;;;;;;7.00;5.33;;;;;;;0.07;90.05;96981.50;1789816;80;21088;-50
2020/12/06 10:23:43;;;;;;;4.15;3.75;;;;;;;0.07;89.80;96980.67;1790433;78;21465;-51
2020/12/06 10:26:12;;;;;;;8.08;4.83;;;;;;;0.10;89.64;96980.58;1781210;80;21198;-50
2020/12/06 10:28:39;;;;;;;7.23;4.67;;;;;;;0.05;89.58;96978.57;1734353;82;21120;-50
2020/12/06 10:31:07;;;;;;;7.50;4.92;;;;;;;0.06;89.81;96976.44;1753313;81;21337;-50
2020/12/06 10:33:35;;;;;;;5.75;4.60;;;;;;;0.06;89.67;96989.19;1817618;78;21041;-49
2020/12/06 10:36:03;;;;;;;5.37;4.37;;;;;;;0.02;89.64;96976.94;1820360;78;21825;-50
2020/12/06 10:38:30;;;;;;;5.40;4.72;;;;;;;-0.06;89.78;96977.11;1820441;78;21178;-50
2020/12/06 10:40:58;;;;;;;7.87;4.55;;;;;;;-0.10;90.13;96979.34;1772251;80;21098;-51
2020/12/06 10:43:26;;;;;;;7.47;4.37;;;;;;;-0.06;90.38;96991.58;1757378;80;21076;-50
2020/12/06 10:45:54;;;;;;;7.95;5.08;;;;;;;0.02;90.32;96984.59;1770091;80;21060;-52
2020/12/06 10:48:23;;;;;;;10.13;4.70;;;;;;;0.05;90.08;96988.36;1787380;80;21057;-50
2020/12/06 10:50:53;;;;;;;11.53;4.97;;;;;;;0.05;89.97;96978.57;1787248;80;21205;-48
2020/12/06 10:53:21;;;;;;;8.08;4.55;;;;;;;0.04;89.91;96970.09;1787258;80;21561;-49
2020/12/06 10:55:48;;;;;;;6.28;4.87;;;;;;;0.02;89.92;96953.98;1787228;80;21179;-50
2020/12/06 10:58:16;;;;;;;7.03;5.50;;;;;;;0.04;90.04;96957.33;1785589;80;21518;-51
2020/12/06 11:00:45;;;;;;;6.45;5.37;;;;;;;0.08;90.13;96955.55;1749114;80;21066;-50
2020/12/06 11:03:13;;;;;;;8.40;5.85;;;;;;;0.16;90.05;96967.27;1746622;80;22287;-51
2020/12/06 11:05:41;;;;;;;7.65;4.78;;;;;;;0.18;89.72;96964.23;1773642;80;21119;-52
2020/12/06 11:08:08;;;;;;;6.78;5.30;;;;;;;0.16;89.58;96951.10;1820341;78;21591;-50
2020/12/06 11:10:36;;;;;;;6.00;4.50;;;;;;;0.15;89.53;96965.58;1800397;78;21081;-50
2020/12/06 11:13:04;;;;;;;5.90;4.90;;;;;;;0.10;89.59;96953.78;1793466;79;21037;-49
2020/12/06 11:15:31;;;;;;;7.35;4.58;;;;;;;0.07;89.81;96948.78;1769297;80;21216;-50
2020/12/06 11:18:01;;;;;;;5.53;4.80;;;;;;;0.07;89.90;96963.64;1789781;78;21132;-50
2020/12/06 11:20:30;;;;;;;9.23;5.22;;;;;;;0.11;90.01;96948.65;1766267;79;21099;-51
2020/12/06 11:22:58;;;;;;;7.30;5.67;;;;;;;0.22;90.01;96948.86;1792213;79;21061;-50
2020/12/06 11:25:26;;;;;;;5.90;4.95;;;;;;;0.28;89.48;96943.17;1761204;80;21354;-50
2020/12/06 11:27:53;;;;;;;8.05;4.87;;;;;;;0.27;89.39;96941.48;1749392;81;21387;-50
2020/12/06 11:30:22;;;;;;;6.83;4.80;;;;;;;0.27;89.21;96932.55;1761076;80;21246;-53
2020/12/06 11:32:51;;;;;;;6.58;5.58;;;;;;;0.26;89.13;96937.69;1756037;80;21268;-50
2020/12/06 11:35:20;;;;;;;6.37;5.45;;;;;;;0.24;89.28;96940.27;1757604;80;21532;-54
2020/12/06 11:37:50;;;;;;;6.78;5.25;;;;;;;0.29;89.41;96940.17;1770978;80;21169;-51
2020/12/06 11:40:19;;;;;;;5.97;5.25;;;;;;;0.33;89.22;96935.41;1769225;80;21578;-52
2020/12/06 11:42:48;;;;;;;11.73;5.22;;;;;;;0.34;89.05;96928.95;1756563;80;21217;-52
2020/12/06 11:45:16;;;;;;;7.83;5.78;;;;;;;0.39;88.97;96931.41;1751431;80;21148;-52
2020/12/06 11:47:44;;;;;;;7.83;5.60;;;;;;;0.36;88.78;96927.64;1789836;78;21182;-51
2020/12/06 11:50:12;;;;;;;7.10;5.50;;;;;;;0.35;88.87;96921.72;1787307;78;21106;-51